sensor_id;sensor_type;location;lat;lon;timestamp;pressure;altitude;pressure_sealevel;temperature;humidity
55470;BME280;41334;47.872;16.384;2023-06-26T00:02:18;99072.53;;;15.70;65.66
55470;BME280;41334;47.872;16.384;2023-06-26T00:07:20;99077.19;;;15.66;64.90
55470;BME280;41334;47.872;16.384;2023-06-26T00:12:27;99080.25;;;15.61;64.35
55470;BME280;41334;47.872;16.384;2023-06-26T00:17:29;99075.72;;;15.56;64.53
55470;BME280;41334;47.872;16.384;2023-06-26T00:22:32;99080.03;;;15.53;63.75
55470;BME280;41334;47.872;16.384;2023-06-26T00:27:34;99081.22;;;15.52;64.27
55470;BME280;41334;47.872;16.384;2023-06-26T00:32:36;99082.72;;;15.50;64.08
55470;BME280;41334;47.872;16.384;2023-06-26T00:37:40;99080.63;;;15.47;64.18
55470;BME280;41334;47.872;16.384;2023-06-26T00:42:42;99078.91;;;15.42;64.51
55470;BME280;41334;47.872;16.384;2023-06-26T00:47:44;99072.41;;;15.38;64.82
55470;BME280;41334;47.872;16.384;2023-06-26T00:52:46;99071.94;;;15.36;64.77
55470;BME280;41334;47.872;16.384;2023-06-26T00:57:48;99064.63;;;15.32;65.30
55470;BME280;41334;47.872;16.384;2023-06-26T01:02:50;99060.56;;;15.29;64.95
55470;BME280;41334;47.872;16.384;2023-06-26T01:07:54;99063.16;;;15.22;66.30
55470;BME280;41334;47.872;16.384;2023-06-26T01:12:59;99058.97;;;15.16;65.21
55470;BME280;41334;47.872;16.384;2023-06-26T01:18:01;99057.56;;;15.10;65.93
55470;BME280;41334;47.872;16.384;2023-06-26T01:23:22;99056.19;;;15.03;65.00
55470;BME280;41334;47.872;16.384;2023-06-26T01:28:26;99050.03;;;14.98;65.71
55470;BME280;41334;47.872;16.384;2023-06-26T01:33:32;99048.31;;;14.93;65.80
55470;BME280;41334;47.872;16.384;2023-06-26T01:38:34;99044.25;;;14.91;66.90
55470;BME280;41334;47.872;16.384;2023-06-26T01:49:21;99041.00;;;14.76;66.55
55470;BME280;41334;47.872;16.384;2023-06-26T01:54:25;99031.22;;;14.70;66.67
55470;BME280;41334;47.872;16.384;2023-06-26T01:59:32;99034.72;;;14.67;67.59
55470;BME280;41334;47.872;16.384;2023-06-26T02:04:36;99035.06;;;14.66;67.48
55470;BME280;41334;47.872;16.384;2023-06-26T02:09:40;99036.09;;;14.61;67.51
55470;BME280;41334;47.872;16.384;2023-06-26T02:14:44;99035.19;;;14.57;67.13
55470;BME280;41334;47.872;16.384;2023-06-26T02:19:46;99033.44;;;14.53;67.04
55470;BME280;41334;47.872;16.384;2023-06-26T02:24:51;99034.84;;;14.46;67.41
55470;BME280;41334;47.872;16.384;2023-06-26T02:29:53;99027.84;;;14.40;68.02
55470;BME280;41334;47.872;16.384;2023-06-26T02:34:55;99036.13;;;14.37;68.08
55470;BME280;41334;47.872;16.384;2023-06-26T02:39:56;99036.47;;;14.35;68.38
55470;BME280;41334;47.872;16.384;2023-06-26T02:44:59;99034.38;;;14.32;67.32
55470;BME280;41334;47.872;16.384;2023-06-26T02:50:01;99036.34;;;14.32;68.02
55470;BME280;41334;47.872;16.384;2023-06-26T02:55:20;99040.31;;;14.31;67.87
55470;BME280;41334;47.872;16.384;2023-06-26T03:00:27;99035.53;;;14.31;67.97
55470;BME280;41334;47.872;16.384;2023-06-26T03:05:33;99054.00;;;14.36;68.15
55470;BME280;41334;47.872;16.384;2023-06-26T03:10:35;99048.22;;;14.41;67.49
55470;BME280;41334;47.872;16.384;2023-06-26T03:15:39;99049.59;;;14.47;66.83
55470;BME280;41334;47.872;16.384;2023-06-26T03:20:41;99052.03;;;14.61;67.53
55470;BME280;41334;47.872;16.384;2023-06-26T03:25:43;99050.31;;;14.81;66.19
55470;BME280;41334;47.872;16.384;2023-06-26T03:30:57;99064.47;;;16.88;59.26
55470;BME280;41334;47.872;16.384;2023-06-26T03:36:00;99054.75;;;17.36;57.53
55470;BME280;41334;47.872;16.384;2023-06-26T03:41:02;99057.16;;;16.67;58.95
55470;BME280;41334;47.872;16.384;2023-06-26T03:46:04;99060.88;;;16.40;60.14
55470;BME280;41334;47.872;16.384;2023-06-26T03:51:08;99065.91;;;16.34;60.68
55470;BME280;41334;47.872;16.384;2023-06-26T03:56:12;99080.34;;;16.36;60.43
55470;BME280;41334;47.872;16.384;2023-06-26T04:01:17;99074.47;;;16.57;59.60
55470;BME280;41334;47.872;16.384;2023-06-26T04:06:19;99068.97;;;18.97;53.73
55470;BME280;41334;47.872;16.384;2023-06-26T04:11:21;99069.88;;;22.11;45.98
55470;BME280;41334;47.872;16.384;2023-06-26T04:16:23;99065.63;;;24.71;39.55
55470;BME280;41334;47.872;16.384;2023-06-26T04:21:26;99074.50;;;25.93;36.25
55470;BME280;41334;47.872;16.384;2023-06-26T04:26:28;99063.06;;;27.29;33.67
55470;BME280;41334;47.872;16.384;2023-06-26T04:31:30;99067.13;;;23.25;41.94
55470;BME280;41334;47.872;16.384;2023-06-26T04:36:32;99077.31;;;21.57;46.31
55470;BME280;41334;47.872;16.384;2023-06-26T04:41:35;99072.88;;;20.94;47.95
55470;BME280;41334;47.872;16.384;2023-06-26T04:46:38;99078.09;;;20.44;48.92
55470;BME280;41334;47.872;16.384;2023-06-26T04:51:43;99075.84;;;19.86;50.61
55470;BME280;41334;47.872;16.384;2023-06-26T04:56:45;99075.66;;;19.71;51.54
55470;BME280;41334;47.872;16.384;2023-06-26T05:01:48;99078.94;;;19.77;51.38
55470;BME280;41334;47.872;16.384;2023-06-26T05:06:51;99073.13;;;19.96;51.22
55470;BME280;41334;47.872;16.384;2023-06-26T05:11:54;99076.47;;;20.09;51.26
55470;BME280;41334;47.872;16.384;2023-06-26T05:16:56;99072.47;;;20.47;50.49
55470;BME280;41334;47.872;16.384;2023-06-26T05:22:00;99088.63;;;20.54;49.87
55470;BME280;41334;47.872;16.384;2023-06-26T05:27:05;99083.91;;;20.65;50.20
55470;BME280;41334;47.872;16.384;2023-06-26T05:32:08;99084.22;;;21.01;49.93
55470;BME280;41334;47.872;16.384;2023-06-26T05:37:14;99085.28;;;20.86;50.80
55470;BME280;41334;47.872;16.384;2023-06-26T05:42:20;99080.16;;;20.98;51.10
55470;BME280;41334;47.872;16.384;2023-06-26T05:47:22;99085.03;;;21.05;50.65
55470;BME280;41334;47.872;16.384;2023-06-26T05:52:25;99083.03;;;21.68;49.83
55470;BME280;41334;47.872;16.384;2023-06-26T05:57:28;99082.41;;;22.24;47.75
55470;BME280;41334;47.872;16.384;2023-06-26T06:02:30;99080.44;;;22.39;47.48
55470;BME280;41334;47.872;16.384;2023-06-26T06:07:34;99077.25;;;22.80;46.70
55470;BME280;41334;47.872;16.384;2023-06-26T06:12:36;99077.22;;;22.87;45.75
55470;BME280;41334;47.872;16.384;2023-06-26T06:17:38;99078.44;;;22.75;45.67
55470;BME280;41334;47.872;16.384;2023-06-26T06:22:41;99076.84;;;22.99;47.83
55470;BME280;41334;47.872;16.384;2023-06-26T06:27:44;99080.47;;;22.57;46.80
55470;BME280;41334;47.872;16.384;2023-06-26T06:32:46;99080.06;;;22.48;47.40
55470;BME280;41334;47.872;16.384;2023-06-26T06:37:52;99083.28;;;22.36;47.86
55470;BME280;41334;47.872;16.384;2023-06-26T06:42:54;99079.63;;;23.28;45.95
55470;BME280;41334;47.872;16.384;2023-06-26T06:47:55;99076.81;;;22.35;45.73
55470;BME280;41334;47.872;16.384;2023-06-26T06:52:58;99069.56;;;22.95;47.07
55470;BME280;41334;47.872;16.384;2023-06-26T06:57:59;99076.03;;;22.95;46.78
55470;BME280;41334;47.872;16.384;2023-06-26T07:03:05;99078.47;;;23.11;46.92
55470;BME280;41334;47.872;16.384;2023-06-26T07:08:07;99066.25;;;23.50;43.40
55470;BME280;41334;47.872;16.384;2023-06-26T07:13:10;99066.28;;;23.39;42.54
55470;BME280;41334;47.872;16.384;2023-06-26T07:18:12;99070.38;;;23.17;44.52
55470;BME280;41334;47.872;16.384;2023-06-26T07:23:14;99077.91;;;24.50;40.53
55470;BME280;41334;47.872;16.384;2023-06-26T07:28:16;99076.56;;;24.69;39.66
55470;BME280;41334;47.872;16.384;2023-06-26T07:33:18;99075.84;;;23.84;42.07
55470;BME280;41334;47.872;16.384;2023-06-26T07:38:20;99078.69;;;25.06;39.58
55470;BME280;41334;47.872;16.384;2023-06-26T07:43:22;99078.56;;;24.72;40.00
55470;BME280;41334;47.872;16.384;2023-06-26T07:48:25;99072.09;;;24.72;40.33
55470;BME280;41334;47.872;16.384;2023-06-26T07:53:27;99076.53;;;24.73;39.80
55470;BME280;41334;47.872;16.384;2023-06-26T07:58:29;99075.53;;;24.94;39.58
55470;BME280;41334;47.872;16.384;2023-06-26T08:03:31;99081.31;;;24.83;39.08
55470;BME280;41334;47.872;16.384;2023-06-26T08:08:36;99079.81;;;25.16;39.13
55470;BME280;41334;47.872;16.384;2023-06-26T08:13:38;99075.91;;;25.78;37.79
55470;BME280;41334;47.872;16.384;2023-06-26T08:18:41;99072.69;;;26.07;35.36
55470;BME280;41334;47.872;16.384;2023-06-26T08:23:43;99061.00;;;26.59;36.36
55470;BME280;41334;47.872;16.384;2023-06-26T08:28:45;99067.16;;;25.96;36.46
55470;BME280;41334;47.872;16.384;2023-06-26T08:33:47;99061.28;;;26.10;36.65
55470;BME280;41334;47.872;16.384;2023-06-26T08:38:49;99067.03;;;25.76;37.52
55470;BME280;41334;47.872;16.384;2023-06-26T08:43:51;99055.63;;;25.42;38.01
55470;BME280;41334;47.872;16.384;2023-06-26T08:49:01;99064.66;;;25.67;40.00
55470;BME280;41334;47.872;16.384;2023-06-26T08:54:07;99057.16;;;26.15;37.62
55470;BME280;41334;47.872;16.384;2023-06-26T08:59:10;99045.19;;;26.58;36.23
55470;BME280;41334;47.872;16.384;2023-06-26T09:04:14;99041.22;;;26.52;36.26
55470;BME280;41334;47.872;16.384;2023-06-26T09:09:16;99039.91;;;27.07;34.74
55470;BME280;41334;47.872;16.384;2023-06-26T09:14:18;99038.16;;;28.48;34.68
55470;BME280;41334;47.872;16.384;2023-06-26T09:19:19;99043.19;;;28.24;35.00
55470;BME280;41334;47.872;16.384;2023-06-26T09:24:22;99038.34;;;27.26;34.93
55470;BME280;41334;47.872;16.384;2023-06-26T09:29:24;99027.28;;;27.71;34.32
55470;BME280;41334;47.872;16.384;2023-06-26T09:34:33;99028.91;;;27.29;35.85
55470;BME280;41334;47.872;16.384;2023-06-26T09:39:35;99018.94;;;28.36;33.61
55470;BME280;41334;47.872;16.384;2023-06-26T09:44:47;99017.94;;;28.07;35.13
55470;BME280;41334;47.872;16.384;2023-06-26T09:49:49;99016.59;;;28.31;33.28
55470;BME280;41334;47.872;16.384;2023-06-26T09:55:07;99013.28;;;27.96;33.83
55470;BME280;41334;47.872;16.384;2023-06-26T10:00:10;99008.88;;;28.64;31.21
55470;BME280;41334;47.872;16.384;2023-06-26T10:05:13;99010.41;;;27.60;33.94
55470;BME280;41334;47.872;16.384;2023-06-26T10:10:16;98989.16;;;28.37;34.80
55470;BME280;41334;47.872;16.384;2023-06-26T10:15:21;98987.31;;;28.47;32.28
55470;BME280;41334;47.872;16.384;2023-06-26T10:20:25;98995.13;;;27.90;34.28
55470;BME280;41334;47.872;16.384;2023-06-26T10:25:31;98987.72;;;28.29;32.30
55470;BME280;41334;47.872;16.384;2023-06-26T10:30:35;98985.59;;;28.17;32.50
55470;BME280;41334;47.872;16.384;2023-06-26T10:35:45;98981.50;;;28.67;32.23
55470;BME280;41334;47.872;16.384;2023-06-26T10:40:48;98971.09;;;28.27;32.84
55470;BME280;41334;47.872;16.384;2023-06-26T10:45:54;98965.66;;;28.33;32.56
55470;BME280;41334;47.872;16.384;2023-06-26T10:50:57;98963.59;;;28.17;32.95
55470;BME280;41334;47.872;16.384;2023-06-26T10:56:02;98959.94;;;28.33;32.45
55470;BME280;41334;47.872;16.384;2023-06-26T11:06:19;98972.94;;;28.83;29.97
55470;BME280;41334;47.872;16.384;2023-06-26T11:11:22;98960.25;;;29.71;29.69
55470;BME280;41334;47.872;16.384;2023-06-26T11:16:44;98960.47;;;30.79;29.04
55470;BME280;41334;47.872;16.384;2023-06-26T11:21:46;98949.69;;;30.83;26.60
55470;BME280;41334;47.872;16.384;2023-06-26T11:26:49;98946.78;;;31.30;27.22
55470;BME280;41334;47.872;16.384;2023-06-26T11:31:59;98947.41;;;31.13;27.47
55470;BME280;41334;47.872;16.384;2023-06-26T11:37:06;98944.31;;;29.99;27.76
55470;BME280;41334;47.872;16.384;2023-06-26T11:42:10;98945.94;;;29.59;28.29
55470;BME280;41334;47.872;16.384;2023-06-26T11:47:17;98942.25;;;30.13;27.48
55470;BME280;41334;47.872;16.384;2023-06-26T11:52:20;98943.72;;;29.37;28.19
55470;BME280;41334;47.872;16.384;2023-06-26T11:57:23;98938.47;;;29.90;28.42
55470;BME280;41334;47.872;16.384;2023-06-26T12:02:26;98935.41;;;29.97;27.27
55470;BME280;41334;47.872;16.384;2023-06-26T12:07:28;98920.56;;;30.63;26.62
55470;BME280;41334;47.872;16.384;2023-06-26T12:12:30;98920.16;;;30.26;26.30
55470;BME280;41334;47.872;16.384;2023-06-26T12:17:33;98923.94;;;30.36;27.10
55470;BME280;41334;47.872;16.384;2023-06-26T12:22:35;98915.59;;;30.28;25.92
55470;BME280;41334;47.872;16.384;2023-06-26T12:27:37;98900.47;;;31.32;26.83
55470;BME280;41334;47.872;16.384;2023-06-26T12:32:39;98915.88;;;31.47;26.33
55470;BME280;41334;47.872;16.384;2023-06-26T12:37:42;98906.09;;;30.44;25.55
55470;BME280;41334;47.872;16.384;2023-06-26T12:42:45;98900.59;;;29.73;28.56
55470;BME280;41334;47.872;16.384;2023-06-26T12:47:47;98898.19;;;30.48;26.51
55470;BME280;41334;47.872;16.384;2023-06-26T12:52:50;98895.88;;;31.56;27.86
55470;BME280;41334;47.872;16.384;2023-06-26T12:57:52;98897.00;;;31.37;26.36
55470;BME280;41334;47.872;16.384;2023-06-26T13:02:54;98891.25;;;30.71;26.58
55470;BME280;41334;47.872;16.384;2023-06-26T13:07:56;98883.72;;;30.86;26.43
55470;BME280;41334;47.872;16.384;2023-06-26T13:12:59;98879.44;;;30.82;24.41
55470;BME280;41334;47.872;16.384;2023-06-26T13:18:03;98869.69;;;31.14;27.30
55470;BME280;41334;47.872;16.384;2023-06-26T13:23:05;98870.84;;;31.79;26.75
55470;BME280;41334;47.872;16.384;2023-06-26T13:28:08;98867.84;;;31.92;24.53
55470;BME280;41334;47.872;16.384;2023-06-26T13:33:10;98871.00;;;31.84;24.70
55470;BME280;41334;47.872;16.384;2023-06-26T13:38:12;98871.09;;;31.41;25.70
55470;BME280;41334;47.872;16.384;2023-06-26T13:43:14;98862.72;;;31.46;24.87
55470;BME280;41334;47.872;16.384;2023-06-26T13:48:17;98859.03;;;30.58;26.27
55470;BME280;41334;47.872;16.384;2023-06-26T13:53:20;98857.63;;;31.19;26.63
55470;BME280;41334;47.872;16.384;2023-06-26T13:58:23;98850.25;;;30.52;26.65
55470;BME280;41334;47.872;16.384;2023-06-26T14:03:28;98848.72;;;30.13;27.40
55470;BME280;41334;47.872;16.384;2023-06-26T14:08:31;98841.06;;;30.92;25.80
55470;BME280;41334;47.872;16.384;2023-06-26T14:13:33;98833.38;;;31.64;25.28
55470;BME280;41334;47.872;16.384;2023-06-26T14:18:35;98827.56;;;30.93;26.96
55470;BME280;41334;47.872;16.384;2023-06-26T14:23:37;98828.88;;;30.44;27.28
55470;BME280;41334;47.872;16.384;2023-06-26T14:28:39;98821.81;;;30.36;29.52
55470;BME280;41334;47.872;16.384;2023-06-26T14:33:41;98819.66;;;30.62;27.22
55470;BME280;41334;47.872;16.384;2023-06-26T14:38:44;98814.59;;;30.44;30.23
55470;BME280;41334;47.872;16.384;2023-06-26T14:43:46;98815.78;;;30.56;28.71
55470;BME280;41334;47.872;16.384;2023-06-26T14:48:49;98813.00;;;30.87;27.83
55470;BME280;41334;47.872;16.384;2023-06-26T14:53:53;98804.94;;;31.17;27.85
55470;BME280;41334;47.872;16.384;2023-06-26T14:58:55;98794.31;;;30.51;28.15
55470;BME280;41334;47.872;16.384;2023-06-26T15:03:57;98797.97;;;30.74;27.48
55470;BME280;41334;47.872;16.384;2023-06-26T15:09:00;98791.13;;;31.46;27.54
55470;BME280;41334;47.872;16.384;2023-06-26T15:14:02;98795.47;;;31.60;27.34
55470;BME280;41334;47.872;16.384;2023-06-26T15:19:04;98788.38;;;30.46;29.95
55470;BME280;41334;47.872;16.384;2023-06-26T15:24:06;98784.41;;;30.30;29.50
55470;BME280;41334;47.872;16.384;2023-06-26T15:29:08;98777.81;;;30.77;29.82
55470;BME280;41334;47.872;16.384;2023-06-26T15:34:10;98780.78;;;31.49;27.08
55470;BME280;41334;47.872;16.384;2023-06-26T15:39:15;98770.16;;;31.27;29.85
55470;BME280;41334;47.872;16.384;2023-06-26T15:44:17;98764.66;;;31.92;28.04
55470;BME280;41334;47.872;16.384;2023-06-26T15:49:20;98764.00;;;31.38;27.93
55470;BME280;41334;47.872;16.384;2023-06-26T15:54:22;98758.91;;;30.58;28.24
55470;BME280;41334;47.872;16.384;2023-06-26T15:59:26;98748.81;;;31.59;28.02
55470;BME280;41334;47.872;16.384;2023-06-26T16:04:28;98755.06;;;30.96;30.43
55470;BME280;41334;47.872;16.384;2023-06-26T16:09:32;98748.53;;;30.73;29.47
55470;BME280;41334;47.872;16.384;2023-06-26T16:14:36;98736.28;;;30.95;28.05
55470;BME280;41334;47.872;16.384;2023-06-26T16:19:38;98731.47;;;31.14;30.03
55470;BME280;41334;47.872;16.384;2023-06-26T16:24:40;98732.47;;;31.69;30.12
55470;BME280;41334;47.872;16.384;2023-06-26T16:29:42;98729.84;;;32.39;29.51
55470;BME280;41334;47.872;16.384;2023-06-26T16:34:46;98723.00;;;32.00;28.49
55470;BME280;41334;47.872;16.384;2023-06-26T16:39:48;98720.75;;;31.95;28.99
55470;BME280;41334;47.872;16.384;2023-06-26T16:44:51;98719.00;;;32.06;29.02
55470;BME280;41334;47.872;16.384;2023-06-26T16:49:54;98715.03;;;31.95;29.45
55470;BME280;41334;47.872;16.384;2023-06-26T16:54:57;98721.31;;;31.71;29.41
55470;BME280;41334;47.872;16.384;2023-06-26T16:59:59;98715.75;;;31.27;30.14
55470;BME280;41334;47.872;16.384;2023-06-26T17:05:00;98707.09;;;30.34;31.33
55470;BME280;41334;47.872;16.384;2023-06-26T17:10:03;98713.56;;;29.78;32.31
55470;BME280;41334;47.872;16.384;2023-06-26T17:15:06;98713.38;;;29.21;33.20
55470;BME280;41334;47.872;16.384;2023-06-26T17:20:09;98714.06;;;28.87;33.60
55470;BME280;41334;47.872;16.384;2023-06-26T17:25:11;98719.69;;;28.49;34.59
55470;BME280;41334;47.872;16.384;2023-06-26T17:30:13;98717.84;;;29.10;33.85
55470;BME280;41334;47.872;16.384;2023-06-26T17:35:15;98720.06;;;30.70;30.97
55470;BME280;41334;47.872;16.384;2023-06-26T17:40:19;98722.53;;;31.11;30.45
55470;BME280;41334;47.872;16.384;2023-06-26T17:45:21;98721.16;;;31.56;29.58
55470;BME280;41334;47.872;16.384;2023-06-26T17:50:23;98723.06;;;31.19;30.25
55470;BME280;41334;47.872;16.384;2023-06-26T17:55:26;98730.94;;;30.18;32.12
55470;BME280;41334;47.872;16.384;2023-06-26T18:00:28;98720.50;;;29.29;33.99
55470;BME280;41334;47.872;16.384;2023-06-26T18:05:30;98719.53;;;28.40;35.94
55470;BME280;41334;47.872;16.384;2023-06-26T18:10:32;98728.81;;;27.82;37.18
55470;BME280;41334;47.872;16.384;2023-06-26T18:15:34;98726.34;;;27.35;37.84
55470;BME280;41334;47.872;16.384;2023-06-26T18:20:36;98723.56;;;27.15;38.90
55470;BME280;41334;47.872;16.384;2023-06-26T18:25:38;98717.56;;;26.74;39.41
55470;BME280;41334;47.872;16.384;2023-06-26T18:30:40;98720.28;;;26.21;41.23
55470;BME280;41334;47.872;16.384;2023-06-26T18:35:42;98719.34;;;25.84;41.91
55470;BME280;41334;47.872;16.384;2023-06-26T18:40:44;98715.69;;;25.60;43.00
55470;BME280;41334;47.872;16.384;2023-06-26T18:45:50;98723.03;;;25.34;43.98
55470;BME280;41334;47.872;16.384;2023-06-26T18:50:52;98720.97;;;25.11;44.09
55470;BME280;41334;47.872;16.384;2023-06-26T18:55:54;98716.47;;;24.83;45.35
55470;BME280;41334;47.872;16.384;2023-06-26T19:00:56;98727.34;;;24.58;45.68
55470;BME280;41334;47.872;16.384;2023-06-26T19:05:59;98721.06;;;24.39;46.52
55470;BME280;41334;47.872;16.384;2023-06-26T19:11:01;98739.22;;;24.11;46.78
55470;BME280;41334;47.872;16.384;2023-06-26T19:16:03;98739.00;;;23.92;46.92
55470;BME280;41334;47.872;16.384;2023-06-26T19:21:05;98732.31;;;23.75;48.08
55470;BME280;41334;47.872;16.384;2023-06-26T19:26:07;98741.66;;;23.65;48.13
55470;BME280;41334;47.872;16.384;2023-06-26T19:31:09;98743.84;;;23.46;47.97
55470;BME280;41334;47.872;16.384;2023-06-26T19:36:12;98743.97;;;23.32;47.80
55470;BME280;41334;47.872;16.384;2023-06-26T19:41:16;98729.50;;;23.19;48.44
55470;BME280;41334;47.872;16.384;2023-06-26T19:46:18;98741.69;;;23.05;48.46
55470;BME280;41334;47.872;16.384;2023-06-26T19:51:20;98738.94;;;22.95;47.67
55470;BME280;41334;47.872;16.384;2023-06-26T19:56:22;98714.38;;;22.81;48.50
55470;BME280;41334;47.872;16.384;2023-06-26T20:01:24;98724.16;;;22.69;48.27
55470;BME280;41334;47.872;16.384;2023-06-26T20:06:26;98731.44;;;22.60;48.51
55470;BME280;41334;47.872;16.384;2023-06-26T20:11:28;98716.59;;;22.45;48.95
55470;BME280;41334;47.872;16.384;2023-06-26T20:16:30;98712.22;;;22.29;49.63
55470;BME280;41334;47.872;16.384;2023-06-26T20:21:32;98704.59;;;22.19;49.34
55470;BME280;41334;47.872;16.384;2023-06-26T20:26:34;98709.84;;;22.10;49.44
55470;BME280;41334;47.872;16.384;2023-06-26T20:31:37;98698.59;;;21.99;50.12
55470;BME280;41334;47.872;16.384;2023-06-26T20:36:42;98701.44;;;21.89;49.45
55470;BME280;41334;47.872;16.384;2023-06-26T20:41:46;98702.28;;;21.78;50.48
55470;BME280;41334;47.872;16.384;2023-06-26T20:46:50;98692.63;;;21.69;50.22
55470;BME280;41334;47.872;16.384;2023-06-26T20:52:00;98691.38;;;21.59;51.22
55470;BME280;41334;47.872;16.384;2023-06-26T20:57:06;98687.81;;;21.44;51.93
55470;BME280;41334;47.872;16.384;2023-06-26T21:02:10;98676.53;;;21.16;53.77
55470;BME280;41334;47.872;16.384;2023-06-26T21:07:12;98678.50;;;20.90;54.87
55470;BME280;41334;47.872;16.384;2023-06-26T21:12:14;98663.59;;;20.79;55.02
55470;BME280;41334;47.872;16.384;2023-06-26T21:17:17;98672.81;;;20.69;55.11
55470;BME280;41334;47.872;16.384;2023-06-26T21:22:19;98686.47;;;20.56;55.68
55470;BME280;41334;47.872;16.384;2023-06-26T21:27:21;98684.47;;;20.49;56.20
55470;BME280;41334;47.872;16.384;2023-06-26T21:32:25;98680.81;;;20.38;56.09
55470;BME280;41334;47.872;16.384;2023-06-26T21:37:27;98679.97;;;20.34;55.77
55470;BME280;41334;47.872;16.384;2023-06-26T21:42:29;98681.97;;;20.27;55.76
55470;BME280;41334;47.872;16.384;2023-06-26T21:47:31;98669.50;;;20.24;55.58
55470;BME280;41334;47.872;16.384;2023-06-26T21:52:33;98655.41;;;20.24;55.61
55470;BME280;41334;47.872;16.384;2023-06-26T21:57:35;98659.84;;;20.21;56.46
55470;BME280;41334;47.872;16.384;2023-06-26T22:02:38;98657.41;;;20.16;55.94
55470;BME280;41334;47.872;16.384;2023-06-26T22:07:42;98652.16;;;20.15;56.75
55470;BME280;41334;47.872;16.384;2023-06-26T22:12:56;98655.78;;;20.12;56.03
55470;BME280;41334;47.872;16.384;2023-06-26T22:17:58;98644.06;;;20.10;55.49
55470;BME280;41334;47.872;16.384;2023-06-26T22:23:00;98649.72;;;20.06;57.12
55470;BME280;41334;47.872;16.384;2023-06-26T22:28:02;98649.28;;;20.04;57.37
55470;BME280;41334;47.872;16.384;2023-06-26T22:33:05;98644.88;;;20.03;57.13
55470;BME280;41334;47.872;16.384;2023-06-26T22:38:07;98642.03;;;20.00;57.87
55470;BME280;41334;47.872;16.384;2023-06-26T22:43:08;98635.97;;;19.90;57.69
55470;BME280;41334;47.872;16.384;2023-06-26T22:48:10;98633.91;;;19.80;58.64
55470;BME280;41334;47.872;16.384;2023-06-26T22:53:13;98628.66;;;19.71;57.86
55470;BME280;41334;47.872;16.384;2023-06-26T22:58:19;98607.72;;;19.62;58.48
55470;BME280;41334;47.872;16.384;2023-06-26T23:03:22;98608.47;;;19.55;58.13
55470;BME280;41334;47.872;16.384;2023-06-26T23:08:25;98609.22;;;19.45;58.24
55470;BME280;41334;47.872;16.384;2023-06-26T23:13:28;98609.22;;;19.41;59.21
55470;BME280;41334;47.872;16.384;2023-06-26T23:18:30;98601.59;;;19.42;59.39
55470;BME280;41334;47.872;16.384;2023-06-26T23:23:33;98608.41;;;19.44;58.20
55470;BME280;41334;47.872;16.384;2023-06-26T23:28:38;98616.91;;;19.55;59.33
55470;BME280;41334;47.872;16.384;2023-06-26T23:33:44;98615.75;;;19.60;58.59
55470;BME280;41334;47.872;16.384;2023-06-26T23:38:49;98616.16;;;19.65;58.41
55470;BME280;41334;47.872;16.384;2023-06-26T23:43:50;98642.63;;;19.61;57.57
55470;BME280;41334;47.872;16.384;2023-06-26T23:48:53;98639.75;;;19.50;59.54
55470;BME280;41334;47.872;16.384;2023-06-26T23:53:55;98648.97;;;19.43;58.74
55470;BME280;41334;47.872;16.384;2023-06-26T23:58:58;98660.53;;;19.35;59.38
